Elmira Corning Regional Airport
KELM : now visible

Airfield :











YOU CAN JOIN US ON...

 
LOGIN :

Register | Disclaimer

   EN    FR    IT 

 









Legend :    VFR   Marginal VFR   IFR   Intensive IFR   Very Intensive IFR
Visi :
Ceiling :
>= 8 km
>= 3000ft
5 to 8 km
1000 to 3000 ft
1500m to 5 km
500 to 1000 ft
800 to 1500m
200 to 500 ft
< 800m
< 200 ft
Symbols :   Thunderstorms  Fog  Heavy snow  Heavy precipitations  Wind > 20 kt






- Airport Elevation : 954 ft
- IATA code : ELM


KELM - Elmira Corning Regional

CURRENT METAR :
  • 081853Z AUTO 29009KT 270V330 10SM SCT040 SCT047 16/06 A2961 RMK AO2 SLP025 T01610056

EXPIRED METARs :
  • 081810Z 32010KT 300V360 10SM BKN033 OVC047 14/07 A2962 RMK AO2 T01440067
  • 081753Z 31008KT 10SM BKN029 BKN037 OVC047 13/07 A2962 RMK AO2 SLP031 T01330067 10139 20083 50000
  • 081711Z 29006KT 10SM BKN028 OVC034 13/07 A2962 RMK AO2 T01280072
  • 081700Z 28007KT 10SM OVC030 13/06 A2962 RMK AO2 T01280061

TAF KELM
Valid from the 08 at 18:00 until the 09 at 18:00 UTC


081744Z 0818/0918 29007KT P6SM BKN028 OVC035
FM081900 31010KT P6SM BKN035
FM090200 20004KT P6SM SCT100
FM091000 19008KT P6SM -SHRA OVC035
FM091100 16009KT 6SM -SHRA OVC030 WS020/20046KT
FM091400 24013G24KT 5SM -SHRA OVC015
FM091600 28019G31KT P6SM OVC025



MET'MAP, your aeronautical weather chart ! - Copyright ORBIFLY December 2007 - Disclaimer

ORBIFLY MET'MAP TEAM :

Programming & Development : Alexandra Zaïnal
Concept & original design : Baudouin d'Aumeries
Assistance for programming : Marc-Olivier Méhu
Technical & hardware support : Manuel Goepfert

Contact : metmap@orbifly.com




SOURCES & CREDITS :

   NOAA       Earth
Advisory